Rock Creek, WV (25174)

1:09 AM EST on February 12, 2016 (GMT -0500)
Fairdale | | Change Station
CLOSE
Current Station
Personal Weather Station
Location: Lester, WV
Elevation: 1938 ft
Nearby Weather Stations

Elev 1938 ft 37.74 °N, 81.35 °W | Updated 11 seconds ago

Clear
Clear
11.3 °F
Feels Like 11 °F
N
0.0
Wind Variable Wind from WSW
Gusts 0.0 mph

Today
High -- | Low -- °F
--% Chance of Precip.
Yesterday
High -- | Low -- °F
Precip. -- in
Pressure 30.30 in
Visibility 10.0 miles
Clouds Mostly Cloudy 12000 ft
Windchill 11 °F
Dew Point -16 °F
Humidity 27%
Rainfall 0.00 in
Snow Depth Not available.
7:19 AM 6:01 PM
Waxing Crescent, 17% visible
METAR KBKW 120551Z AUTO 00000KT 10SM BKN120 M10/M16 A3014 RMK AO2 SLP260 T11001156 11089 21117 58008
Pressure 30.30 in
Visibility 10.0 miles
Clouds Mostly Cloudy 12000 ft
Windchill 11 °F
Dew Point -16 °F
Humidity 27%
Rainfall 0.00 in
Snow Depth Not available.
7:19 AM 6:01 PM
Waxing Crescent, 17% visible
METAR KBKW 120551Z AUTO 00000KT 10SM BKN120 M10/M16 A3014 RMK AO2 SLP260 T11001156 11089 21117 58008

10-Day Weather Forecast

Almanac

Astronomy

Feb. 12, 2016 Rise Set
Actual Time
Civil Twilight
Nautical Twilight
Astronomical Twilight
Moon
Length of Visible Light
Length of Day
Tomorrow will be .
, % of the Moon is Illuminated

Today's Extremes

State Highs State Lows

Community

WunderPhotos

Upload Photos

1,892,270 photos uploaded!

WunderBlog® & News

Nearby

Air Quality

  Air Quality AQ Index Pollutant
Not available.

Snow Depth

Station Depth Elevation

Earthquake Activity

City Distance Mag. Time & Date
Minimum magnitude displayed is 2.5.

Coastal Water Temperatures

Place Temperature

Stations

Nearby Weather Stations

Station Location Temp. Windchill Dew Point Humidity Wind Precip. Elev Updated Type
                   

Watches & Warnings

There are currently no watches in effect.